sensor_id;sensor_type;location;lat;lon;timestamp;P1;durP1;ratioP1;P2;durP2;ratioP2
22614;SDS011;11474;50.790;0.298;2023-06-26T00:00:21;7.25;;;1.65;;
22614;SDS011;11474;50.790;0.298;2023-06-26T00:02:47;5.50;;;1.50;;
22614;SDS011;11474;50.790;0.298;2023-06-26T00:05:13;11.15;;;1.80;;
22614;SDS011;11474;50.790;0.298;2023-06-26T00:07:39;4.15;;;1.63;;
22614;SDS011;11474;50.790;0.298;2023-06-26T00:10:05;4.70;;;1.60;;
22614;SDS011;11474;50.790;0.298;2023-06-26T00:12:34;4.85;;;1.60;;
22614;SDS011;11474;50.790;0.298;2023-06-26T00:15:00;7.93;;;1.60;;
22614;SDS011;11474;50.790;0.298;2023-06-26T00:17:26;5.55;;;1.88;;
22614;SDS011;11474;50.790;0.298;2023-06-26T00:19:52;6.97;;;1.67;;
22614;SDS011;11474;50.790;0.298;2023-06-26T00:22:18;6.75;;;2.15;;
22614;SDS011;11474;50.790;0.298;2023-06-26T00:24:45;5.60;;;1.55;;
22614;SDS011;11474;50.790;0.298;2023-06-26T00:27:11;5.32;;;1.52;;
22614;SDS011;11474;50.790;0.298;2023-06-26T00:29:37;5.35;;;1.75;;
22614;SDS011;11474;50.790;0.298;2023-06-26T00:32:03;4.30;;;1.50;;
22614;SDS011;11474;50.790;0.298;2023-06-26T00:34:30;7.80;;;1.80;;
22614;SDS011;11474;50.790;0.298;2023-06-26T00:36:56;5.53;;;1.60;;
22614;SDS011;11474;50.790;0.298;2023-06-26T00:39:22;5.55;;;1.55;;
22614;SDS011;11474;50.790;0.298;2023-06-26T00:41:50;5.82;;;1.65;;
22614;SDS011;11474;50.790;0.298;2023-06-26T00:44:18;4.80;;;1.73;;
22614;SDS011;11474;50.790;0.298;2023-06-26T00:46:45;5.68;;;1.63;;
22614;SDS011;11474;50.790;0.298;2023-06-26T00:49:11;6.68;;;1.90;;
22614;SDS011;11474;50.790;0.298;2023-06-26T00:51:39;5.57;;;1.67;;
22614;SDS011;11474;50.790;0.298;2023-06-26T00:54:05;6.75;;;1.70;;
22614;SDS011;11474;50.790;0.298;2023-06-26T00:56:32;3.90;;;1.65;;
22614;SDS011;11474;50.790;0.298;2023-06-26T00:58:58;6.60;;;2.00;;
22614;SDS011;11474;50.790;0.298;2023-06-26T01:01:24;6.85;;;1.73;;
22614;SDS011;11474;50.790;0.298;2023-06-26T01:03:51;8.77;;;2.03;;
22614;SDS011;11474;50.790;0.298;2023-06-26T01:06:17;6.60;;;2.00;;
22614;SDS011;11474;50.790;0.298;2023-06-26T01:08:44;5.60;;;1.83;;
22614;SDS011;11474;50.790;0.298;2023-06-26T01:11:10;3.92;;;1.63;;
22614;SDS011;11474;50.790;0.298;2023-06-26T01:13:37;5.22;;;1.80;;
22614;SDS011;11474;50.790;0.298;2023-06-26T01:16:04;5.80;;;1.77;;
22614;SDS011;11474;50.790;0.298;2023-06-26T01:18:31;8.05;;;1.90;;
22614;SDS011;11474;50.790;0.298;2023-06-26T01:20:58;4.93;;;1.83;;
22614;SDS011;11474;50.790;0.298;2023-06-26T01:28:33;11.25;;;2.42;;
22614;SDS011;11474;50.790;0.298;2023-06-26T01:31:00;8.40;;;2.10;;
22614;SDS011;11474;50.790;0.298;2023-06-26T01:33:27;5.93;;;2.10;;
22614;SDS011;11474;50.790;0.298;2023-06-26T01:35:53;7.18;;;1.80;;
22614;SDS011;11474;50.790;0.298;2023-06-26T01:38:19;9.43;;;1.92;;
22614;SDS011;11474;50.790;0.298;2023-06-26T01:40:46;6.68;;;2.10;;
22614;SDS011;11474;50.790;0.298;2023-06-26T01:43:15;7.63;;;2.00;;
22614;SDS011;11474;50.790;0.298;2023-06-26T01:45:45;7.23;;;1.87;;
22614;SDS011;11474;50.790;0.298;2023-06-26T01:48:13;9.15;;;2.80;;
22614;SDS011;11474;50.790;0.298;2023-06-26T01:50:42;9.23;;;2.17;;
22614;SDS011;11474;50.790;0.298;2023-06-26T01:53:12;9.93;;;2.10;;
22614;SDS011;11474;50.790;0.298;2023-06-26T01:58:08;9.32;;;2.20;;
22614;SDS011;11474;50.790;0.298;2023-06-26T02:00:35;8.43;;;2.30;;
22614;SDS011;11474;50.790;0.298;2023-06-26T02:03:01;8.07;;;1.90;;
22614;SDS011;11474;50.790;0.298;2023-06-26T02:05:29;11.93;;;2.30;;
22614;SDS011;11474;50.790;0.298;2023-06-26T02:07:56;8.90;;;2.28;;
22614;SDS011;11474;50.790;0.298;2023-06-26T02:10:22;9.75;;;2.45;;
22614;SDS011;11474;50.790;0.298;2023-06-26T02:12:48;12.02;;;2.35;;
22614;SDS011;11474;50.790;0.298;2023-06-26T02:15:14;9.75;;;2.65;;
22614;SDS011;11474;50.790;0.298;2023-06-26T02:17:40;10.73;;;2.70;;
22614;SDS011;11474;50.790;0.298;2023-06-26T02:20:06;13.10;;;3.10;;
22614;SDS011;11474;50.790;0.298;2023-06-26T02:22:35;9.85;;;2.45;;
22614;SDS011;11474;50.790;0.298;2023-06-26T02:25:01;10.90;;;2.20;;
22614;SDS011;11474;50.790;0.298;2023-06-26T02:27:27;14.88;;;3.33;;
22614;SDS011;11474;50.790;0.298;2023-06-26T02:29:53;13.52;;;2.90;;
22614;SDS011;11474;50.790;0.298;2023-06-26T02:32:19;13.93;;;3.28;;
22614;SDS011;11474;50.790;0.298;2023-06-26T02:34:45;13.85;;;2.88;;
22614;SDS011;11474;50.790;0.298;2023-06-26T02:37:11;14.07;;;2.40;;
22614;SDS011;11474;50.790;0.298;2023-06-26T02:39:38;11.95;;;2.45;;
22614;SDS011;11474;50.790;0.298;2023-06-26T02:42:04;11.45;;;2.55;;
22614;SDS011;11474;50.790;0.298;2023-06-26T02:44:30;8.63;;;2.20;;
22614;SDS011;11474;50.790;0.298;2023-06-26T02:46:56;9.68;;;2.60;;
22614;SDS011;11474;50.790;0.298;2023-06-26T02:49:22;11.80;;;2.70;;
22614;SDS011;11474;50.790;0.298;2023-06-26T02:51:48;9.98;;;2.65;;
22614;SDS011;11474;50.790;0.298;2023-06-26T02:54:14;10.23;;;2.50;;
22614;SDS011;11474;50.790;0.298;2023-06-26T02:56:40;7.45;;;2.35;;
22614;SDS011;11474;50.790;0.298;2023-06-26T02:59:07;13.30;;;2.88;;
22614;SDS011;11474;50.790;0.298;2023-06-26T03:01:33;10.07;;;2.55;;
22614;SDS011;11474;50.790;0.298;2023-06-26T03:04:00;9.35;;;2.35;;
22614;SDS011;11474;50.790;0.298;2023-06-26T03:06:26;9.15;;;2.50;;
22614;SDS011;11474;50.790;0.298;2023-06-26T03:08:53;14.52;;;2.90;;
22614;SDS011;11474;50.790;0.298;2023-06-26T03:11:19;9.60;;;2.45;;
22614;SDS011;11474;50.790;0.298;2023-06-26T03:13:45;13.23;;;3.10;;
22614;SDS011;11474;50.790;0.298;2023-06-26T03:16:12;10.52;;;2.97;;
22614;SDS011;11474;50.790;0.298;2023-06-26T03:18:38;10.18;;;2.80;;
22614;SDS011;11474;50.790;0.298;2023-06-26T03:21:04;11.20;;;2.60;;
22614;SDS011;11474;50.790;0.298;2023-06-26T03:23:30;8.73;;;2.92;;
22614;SDS011;11474;50.790;0.298;2023-06-26T03:25:56;9.75;;;2.70;;
22614;SDS011;11474;50.790;0.298;2023-06-26T03:28:22;11.45;;;2.88;;
22614;SDS011;11474;50.790;0.298;2023-06-26T03:30:48;12.18;;;2.65;;
22614;SDS011;11474;50.790;0.298;2023-06-26T03:33:14;12.87;;;3.33;;
22614;SDS011;11474;50.790;0.298;2023-06-26T03:35:40;8.60;;;2.50;;
22614;SDS011;11474;50.790;0.298;2023-06-26T03:38:07;9.55;;;2.45;;
22614;SDS011;11474;50.790;0.298;2023-06-26T03:40:33;10.90;;;2.70;;
22614;SDS011;11474;50.790;0.298;2023-06-26T03:42:59;9.63;;;2.53;;
22614;SDS011;11474;50.790;0.298;2023-06-26T03:45:25;9.27;;;2.35;;
22614;SDS011;11474;50.790;0.298;2023-06-26T03:47:51;6.75;;;2.20;;
22614;SDS011;11474;50.790;0.298;2023-06-26T03:50:17;13.27;;;2.65;;
22614;SDS011;11474;50.790;0.298;2023-06-26T03:52:43;11.20;;;3.05;;
22614;SDS011;11474;50.790;0.298;2023-06-26T03:55:10;7.50;;;2.55;;
22614;SDS011;11474;50.790;0.298;2023-06-26T03:57:36;10.55;;;2.60;;
22614;SDS011;11474;50.790;0.298;2023-06-26T04:00:02;8.88;;;2.70;;
22614;SDS011;11474;50.790;0.298;2023-06-26T04:02:33;12.50;;;3.17;;
22614;SDS011;11474;50.790;0.298;2023-06-26T04:05:00;8.80;;;2.42;;
22614;SDS011;11474;50.790;0.298;2023-06-26T04:07:26;8.15;;;2.35;;
22614;SDS011;11474;50.790;0.298;2023-06-26T04:09:52;7.93;;;2.47;;
22614;SDS011;11474;50.790;0.298;2023-06-26T04:12:18;13.25;;;2.85;;
22614;SDS011;11474;50.790;0.298;2023-06-26T04:14:45;8.90;;;2.65;;
22614;SDS011;11474;50.790;0.298;2023-06-26T04:17:11;14.43;;;2.90;;
22614;SDS011;11474;50.790;0.298;2023-06-26T04:19:37;8.48;;;2.70;;
22614;SDS011;11474;50.790;0.298;2023-06-26T04:22:03;9.00;;;2.60;;
22614;SDS011;11474;50.790;0.298;2023-06-26T04:24:29;6.75;;;2.42;;
22614;SDS011;11474;50.790;0.298;2023-06-26T04:26:56;9.68;;;2.72;;
22614;SDS011;11474;50.790;0.298;2023-06-26T04:29:22;7.18;;;2.50;;
22614;SDS011;11474;50.790;0.298;2023-06-26T04:31:51;9.18;;;2.60;;
22614;SDS011;11474;50.790;0.298;2023-06-26T04:34:17;7.78;;;2.55;;
22614;SDS011;11474;50.790;0.298;2023-06-26T04:36:43;13.23;;;2.60;;
22614;SDS011;11474;50.790;0.298;2023-06-26T04:39:13;8.25;;;2.78;;
22614;SDS011;11474;50.790;0.298;2023-06-26T04:41:39;10.82;;;2.90;;
22614;SDS011;11474;50.790;0.298;2023-06-26T04:44:06;16.77;;;3.17;;
22614;SDS011;11474;50.790;0.298;2023-06-26T04:46:32;11.50;;;2.80;;
22614;SDS011;11474;50.790;0.298;2023-06-26T04:48:58;10.98;;;2.70;;
22614;SDS011;11474;50.790;0.298;2023-06-26T04:51:24;13.63;;;2.67;;
22614;SDS011;11474;50.790;0.298;2023-06-26T04:53:52;14.27;;;2.60;;
22614;SDS011;11474;50.790;0.298;2023-06-26T04:56:18;8.32;;;2.70;;
22614;SDS011;11474;50.790;0.298;2023-06-26T04:58:44;12.20;;;2.70;;
22614;SDS011;11474;50.790;0.298;2023-06-26T05:01:10;13.52;;;2.65;;
22614;SDS011;11474;50.790;0.298;2023-06-26T05:03:38;11.32;;;2.78;;
22614;SDS011;11474;50.790;0.298;2023-06-26T05:06:04;10.20;;;2.67;;
22614;SDS011;11474;50.790;0.298;2023-06-26T05:08:30;12.13;;;2.88;;
22614;SDS011;11474;50.790;0.298;2023-06-26T05:10:56;9.50;;;2.58;;
22614;SDS011;11474;50.790;0.298;2023-06-26T05:13:23;14.68;;;2.60;;
22614;SDS011;11474;50.790;0.298;2023-06-26T05:15:49;10.98;;;2.50;;
22614;SDS011;11474;50.790;0.298;2023-06-26T05:18:16;10.13;;;2.60;;
22614;SDS011;11474;50.790;0.298;2023-06-26T05:20:42;11.85;;;2.65;;
22614;SDS011;11474;50.790;0.298;2023-06-26T05:23:08;8.10;;;2.50;;
22614;SDS011;11474;50.790;0.298;2023-06-26T05:25:36;12.07;;;2.70;;
22614;SDS011;11474;50.790;0.298;2023-06-26T05:28:03;9.30;;;2.70;;
22614;SDS011;11474;50.790;0.298;2023-06-26T05:30:30;9.70;;;2.92;;
22614;SDS011;11474;50.790;0.298;2023-06-26T05:32:59;8.93;;;2.45;;
22614;SDS011;11474;50.790;0.298;2023-06-26T05:35:27;10.68;;;2.30;;
22614;SDS011;11474;50.790;0.298;2023-06-26T05:37:55;7.85;;;2.20;;
22614;SDS011;11474;50.790;0.298;2023-06-26T05:40:21;7.43;;;2.40;;
22614;SDS011;11474;50.790;0.298;2023-06-26T05:42:47;11.55;;;2.67;;
22614;SDS011;11474;50.790;0.298;2023-06-26T05:45:14;8.40;;;2.17;;
22614;SDS011;11474;50.790;0.298;2023-06-26T05:47:40;12.32;;;2.65;;
22614;SDS011;11474;50.790;0.298;2023-06-26T05:50:07;13.48;;;2.72;;
22614;SDS011;11474;50.790;0.298;2023-06-26T05:52:34;15.60;;;2.67;;
22614;SDS011;11474;50.790;0.298;2023-06-26T05:55:00;10.15;;;2.63;;
22614;SDS011;11474;50.790;0.298;2023-06-26T05:57:27;14.02;;;3.35;;
22614;SDS011;11474;50.790;0.298;2023-06-26T05:59:54;14.13;;;2.65;;
22614;SDS011;11474;50.790;0.298;2023-06-26T06:02:20;9.93;;;2.47;;
22614;SDS011;11474;50.790;0.298;2023-06-26T06:04:46;14.68;;;3.20;;
22614;SDS011;11474;50.790;0.298;2023-06-26T06:07:12;11.77;;;2.38;;
22614;SDS011;11474;50.790;0.298;2023-06-26T06:09:39;11.33;;;2.60;;
22614;SDS011;11474;50.790;0.298;2023-06-26T06:12:05;9.68;;;2.50;;
22614;SDS011;11474;50.790;0.298;2023-06-26T06:14:32;12.98;;;2.92;;
22614;SDS011;11474;50.790;0.298;2023-06-26T06:16:58;14.35;;;3.00;;
22614;SDS011;11474;50.790;0.298;2023-06-26T06:19:24;8.30;;;2.47;;
22614;SDS011;11474;50.790;0.298;2023-06-26T06:21:50;14.38;;;2.58;;
22614;SDS011;11474;50.790;0.298;2023-06-26T06:24:16;10.67;;;2.83;;
22614;SDS011;11474;50.790;0.298;2023-06-26T06:26:42;14.27;;;2.83;;
22614;SDS011;11474;50.790;0.298;2023-06-26T06:29:09;13.50;;;3.13;;
22614;SDS011;11474;50.790;0.298;2023-06-26T06:31:35;11.75;;;2.60;;
22614;SDS011;11474;50.790;0.298;2023-06-26T06:34:01;10.27;;;2.50;;
22614;SDS011;11474;50.790;0.298;2023-06-26T06:36:27;14.00;;;2.42;;
22614;SDS011;11474;50.790;0.298;2023-06-26T06:38:53;10.98;;;2.85;;
22614;SDS011;11474;50.790;0.298;2023-06-26T06:41:19;9.73;;;2.38;;
22614;SDS011;11474;50.790;0.298;2023-06-26T06:43:46;19.80;;;3.20;;
22614;SDS011;11474;50.790;0.298;2023-06-26T06:46:12;11.60;;;2.70;;
22614;SDS011;11474;50.790;0.298;2023-06-26T06:48:38;10.02;;;2.67;;
22614;SDS011;11474;50.790;0.298;2023-06-26T06:51:04;15.15;;;2.92;;
22614;SDS011;11474;50.790;0.298;2023-06-26T06:53:31;14.13;;;3.03;;
22614;SDS011;11474;50.790;0.298;2023-06-26T06:55:57;12.75;;;2.67;;
22614;SDS011;11474;50.790;0.298;2023-06-26T06:58:23;16.98;;;3.00;;
22614;SDS011;11474;50.790;0.298;2023-06-26T07:00:49;12.80;;;2.60;;
22614;SDS011;11474;50.790;0.298;2023-06-26T07:03:17;16.13;;;2.88;;
22614;SDS011;11474;50.790;0.298;2023-06-26T07:05:43;10.73;;;2.42;;
22614;SDS011;11474;50.790;0.298;2023-06-26T07:08:09;12.55;;;2.85;;
22614;SDS011;11474;50.790;0.298;2023-06-26T07:10:36;12.70;;;3.10;;
22614;SDS011;11474;50.790;0.298;2023-06-26T07:13:02;12.52;;;2.80;;
22614;SDS011;11474;50.790;0.298;2023-06-26T07:15:28;15.55;;;3.08;;
22614;SDS011;11474;50.790;0.298;2023-06-26T07:17:54;12.80;;;2.75;;
22614;SDS011;11474;50.790;0.298;2023-06-26T07:20:20;15.00;;;3.10;;
22614;SDS011;11474;50.790;0.298;2023-06-26T07:22:46;11.85;;;2.78;;
22614;SDS011;11474;50.790;0.298;2023-06-26T07:25:12;12.75;;;3.08;;
22614;SDS011;11474;50.790;0.298;2023-06-26T07:27:39;13.40;;;2.80;;
22614;SDS011;11474;50.790;0.298;2023-06-26T07:30:06;14.48;;;3.00;;
22614;SDS011;11474;50.790;0.298;2023-06-26T07:32:36;12.27;;;2.70;;
22614;SDS011;11474;50.790;0.298;2023-06-26T07:35:03;13.30;;;2.90;;
22614;SDS011;11474;50.790;0.298;2023-06-26T07:37:29;11.40;;;2.65;;
22614;SDS011;11474;50.790;0.298;2023-06-26T07:39:55;11.07;;;3.00;;
22614;SDS011;11474;50.790;0.298;2023-06-26T07:42:21;9.35;;;2.60;;
22614;SDS011;11474;50.790;0.298;2023-06-26T07:44:47;10.68;;;2.60;;
22614;SDS011;11474;50.790;0.298;2023-06-26T07:47:14;9.40;;;2.33;;
22614;SDS011;11474;50.790;0.298;2023-06-26T07:49:40;11.93;;;2.50;;
22614;SDS011;11474;50.790;0.298;2023-06-26T07:52:06;11.88;;;2.65;;
22614;SDS011;11474;50.790;0.298;2023-06-26T07:54:35;9.25;;;2.53;;
22614;SDS011;11474;50.790;0.298;2023-06-26T07:57:02;8.98;;;2.38;;
22614;SDS011;11474;50.790;0.298;2023-06-26T07:59:30;11.43;;;2.50;;
22614;SDS011;11474;50.790;0.298;2023-06-26T08:01:56;10.40;;;2.92;;
22614;SDS011;11474;50.790;0.298;2023-06-26T08:04:24;12.80;;;3.55;;
22614;SDS011;11474;50.790;0.298;2023-06-26T08:06:52;11.63;;;2.55;;
22614;SDS011;11474;50.790;0.298;2023-06-26T08:09:18;8.32;;;2.47;;
22614;SDS011;11474;50.790;0.298;2023-06-26T08:11:45;8.75;;;2.50;;
22614;SDS011;11474;50.790;0.298;2023-06-26T08:14:11;10.00;;;2.70;;
22614;SDS011;11474;50.790;0.298;2023-06-26T08:16:38;11.52;;;2.80;;
22614;SDS011;11474;50.790;0.298;2023-06-26T08:19:04;12.43;;;2.70;;
22614;SDS011;11474;50.790;0.298;2023-06-26T08:21:30;8.20;;;2.57;;
22614;SDS011;11474;50.790;0.298;2023-06-26T08:23:56;8.35;;;2.53;;
22614;SDS011;11474;50.790;0.298;2023-06-26T08:26:23;9.30;;;2.38;;
22614;SDS011;11474;50.790;0.298;2023-06-26T08:28:49;10.93;;;2.70;;
22614;SDS011;11474;50.790;0.298;2023-06-26T08:31:15;11.20;;;2.63;;
22614;SDS011;11474;50.790;0.298;2023-06-26T08:33:42;9.55;;;2.50;;
22614;SDS011;11474;50.790;0.298;2023-06-26T08:36:08;10.82;;;2.53;;
22614;SDS011;11474;50.790;0.298;2023-06-26T08:38:34;8.18;;;2.53;;
22614;SDS011;11474;50.790;0.298;2023-06-26T08:41:00;9.82;;;2.33;;
22614;SDS011;11474;50.790;0.298;2023-06-26T08:43:26;8.63;;;2.42;;
22614;SDS011;11474;50.790;0.298;2023-06-26T08:45:53;7.97;;;2.30;;
22614;SDS011;11474;50.790;0.298;2023-06-26T08:48:20;11.55;;;2.70;;
22614;SDS011;11474;50.790;0.298;2023-06-26T08:50:48;7.10;;;2.42;;
22614;SDS011;11474;50.790;0.298;2023-06-26T08:55:41;10.77;;;2.42;;
22614;SDS011;11474;50.790;0.298;2023-06-26T08:58:07;12.07;;;2.87;;
22614;SDS011;11474;50.790;0.298;2023-06-26T09:00:33;10.25;;;2.60;;
22614;SDS011;11474;50.790;0.298;2023-06-26T09:02:59;8.55;;;2.70;;
22614;SDS011;11474;50.790;0.298;2023-06-26T09:05:26;7.83;;;2.10;;
22614;SDS011;11474;50.790;0.298;2023-06-26T09:07:53;11.95;;;2.47;;
22614;SDS011;11474;50.790;0.298;2023-06-26T09:10:21;9.73;;;2.53;;
22614;SDS011;11474;50.790;0.298;2023-06-26T09:12:47;10.80;;;2.90;;
22614;SDS011;11474;50.790;0.298;2023-06-26T09:15:14;6.78;;;2.20;;
22614;SDS011;11474;50.790;0.298;2023-06-26T09:17:40;8.88;;;2.40;;
22614;SDS011;11474;50.790;0.298;2023-06-26T09:20:08;8.60;;;2.27;;
22614;SDS011;11474;50.790;0.298;2023-06-26T09:22:40;12.27;;;2.40;;
22614;SDS011;11474;50.790;0.298;2023-06-26T09:25:06;11.02;;;2.45;;
22614;SDS011;11474;50.790;0.298;2023-06-26T09:27:33;8.13;;;2.20;;
22614;SDS011;11474;50.790;0.298;2023-06-26T09:30:00;9.02;;;2.22;;
22614;SDS011;11474;50.790;0.298;2023-06-26T09:32:27;11.38;;;2.35;;
22614;SDS011;11474;50.790;0.298;2023-06-26T09:34:53;6.93;;;2.50;;
22614;SDS011;11474;50.790;0.298;2023-06-26T09:37:25;10.73;;;2.50;;
22614;SDS011;11474;50.790;0.298;2023-06-26T09:39:52;10.30;;;2.13;;
22614;SDS011;11474;50.790;0.298;2023-06-26T09:42:19;9.55;;;2.50;;
22614;SDS011;11474;50.790;0.298;2023-06-26T09:44:45;10.80;;;2.35;;
22614;SDS011;11474;50.790;0.298;2023-06-26T09:47:12;10.05;;;2.50;;
22614;SDS011;11474;50.790;0.298;2023-06-26T09:49:41;11.02;;;2.60;;
22614;SDS011;11474;50.790;0.298;2023-06-26T09:52:08;13.77;;;2.88;;
22614;SDS011;11474;50.790;0.298;2023-06-26T09:54:34;11.35;;;2.47;;
22614;SDS011;11474;50.790;0.298;2023-06-26T09:57:17;10.27;;;2.65;;
22614;SDS011;11474;50.790;0.298;2023-06-26T09:59:44;12.02;;;3.15;;
22614;SDS011;11474;50.790;0.298;2023-06-26T10:02:11;11.63;;;2.60;;
22614;SDS011;11474;50.790;0.298;2023-06-26T10:04:37;13.55;;;3.45;;
22614;SDS011;11474;50.790;0.298;2023-06-26T10:07:08;11.05;;;2.63;;
22614;SDS011;11474;50.790;0.298;2023-06-26T10:09:37;12.43;;;2.95;;
22614;SDS011;11474;50.790;0.298;2023-06-26T10:12:06;12.07;;;3.15;;
22614;SDS011;11474;50.790;0.298;2023-06-26T10:14:37;11.13;;;2.50;;
22614;SDS011;11474;50.790;0.298;2023-06-26T10:17:07;13.95;;;2.85;;
22614;SDS011;11474;50.790;0.298;2023-06-26T10:19:35;11.45;;;2.90;;
22614;SDS011;11474;50.790;0.298;2023-06-26T10:22:03;10.68;;;2.80;;
22614;SDS011;11474;50.790;0.298;2023-06-26T10:24:31;13.20;;;2.88;;
22614;SDS011;11474;50.790;0.298;2023-06-26T10:26:59;11.20;;;2.90;;
22614;SDS011;11474;50.790;0.298;2023-06-26T10:29:27;8.05;;;2.15;;
22614;SDS011;11474;50.790;0.298;2023-06-26T10:31:55;10.38;;;2.85;;
22614;SDS011;11474;50.790;0.298;2023-06-26T10:34:22;10.32;;;2.53;;
22614;SDS011;11474;50.790;0.298;2023-06-26T10:36:55;11.10;;;2.70;;
22614;SDS011;11474;50.790;0.298;2023-06-26T10:39:24;14.55;;;2.80;;
22614;SDS011;11474;50.790;0.298;2023-06-26T10:41:50;12.05;;;3.00;;
22614;SDS011;11474;50.790;0.298;2023-06-26T10:44:20;11.57;;;2.83;;
22614;SDS011;11474;50.790;0.298;2023-06-26T10:46:56;9.57;;;2.47;;
22614;SDS011;11474;50.790;0.298;2023-06-26T10:49:29;11.25;;;2.70;;
22614;SDS011;11474;50.790;0.298;2023-06-26T10:51:56;11.20;;;2.83;;
22614;SDS011;11474;50.790;0.298;2023-06-26T10:54:28;13.43;;;2.80;;
22614;SDS011;11474;50.790;0.298;2023-06-26T10:56:55;10.10;;;2.38;;
22614;SDS011;11474;50.790;0.298;2023-06-26T10:59:25;10.90;;;2.90;;
22614;SDS011;11474;50.790;0.298;2023-06-26T11:01:58;12.13;;;2.35;;
22614;SDS011;11474;50.790;0.298;2023-06-26T11:07:22;12.27;;;2.50;;
22614;SDS011;11474;50.790;0.298;2023-06-26T11:12:36;11.27;;;2.33;;
22614;SDS011;11474;50.790;0.298;2023-06-26T11:15:06;11.65;;;2.50;;
22614;SDS011;11474;50.790;0.298;2023-06-26T11:17:34;9.20;;;2.40;;
22614;SDS011;11474;50.790;0.298;2023-06-26T11:20:00;8.15;;;2.15;;
22614;SDS011;11474;50.790;0.298;2023-06-26T11:22:26;11.33;;;2.53;;
22614;SDS011;11474;50.790;0.298;2023-06-26T11:24:53;7.78;;;2.08;;
22614;SDS011;11474;50.790;0.298;2023-06-26T11:27:19;10.85;;;2.42;;
22614;SDS011;11474;50.790;0.298;2023-06-26T11:29:48;9.07;;;2.28;;
22614;SDS011;11474;50.790;0.298;2023-06-26T11:32:15;10.38;;;2.33;;
22614;SDS011;11474;50.790;0.298;2023-06-26T11:34:41;12.50;;;2.80;;
22614;SDS011;11474;50.790;0.298;2023-06-26T11:37:08;11.93;;;2.80;;
22614;SDS011;11474;50.790;0.298;2023-06-26T11:39:34;11.55;;;2.90;;
22614;SDS011;11474;50.790;0.298;2023-06-26T11:42:02;11.13;;;2.50;;
22614;SDS011;11474;50.790;0.298;2023-06-26T11:44:31;12.38;;;2.72;;
22614;SDS011;11474;50.790;0.298;2023-06-26T11:46:57;12.02;;;2.50;;
22614;SDS011;11474;50.790;0.298;2023-06-26T11:49:24;11.40;;;2.55;;
22614;SDS011;11474;50.790;0.298;2023-06-26T11:51:50;16.60;;;3.70;;
22614;SDS011;11474;50.790;0.298;2023-06-26T11:54:22;14.75;;;2.42;;
22614;SDS011;11474;50.790;0.298;2023-06-26T11:56:53;15.35;;;3.22;;
22614;SDS011;11474;50.790;0.298;2023-06-26T11:59:21;12.52;;;2.63;;
22614;SDS011;11474;50.790;0.298;2023-06-26T12:01:49;15.63;;;2.90;;
22614;SDS011;11474;50.790;0.298;2023-06-26T12:04:16;12.80;;;3.03;;
22614;SDS011;11474;50.790;0.298;2023-06-26T12:06:43;10.55;;;2.90;;
22614;SDS011;11474;50.790;0.298;2023-06-26T12:09:10;11.05;;;2.67;;
22614;SDS011;11474;50.790;0.298;2023-06-26T12:11:40;14.60;;;2.90;;
22614;SDS011;11474;50.790;0.298;2023-06-26T12:14:07;13.35;;;2.80;;
22614;SDS011;11474;50.790;0.298;2023-06-26T12:16:34;9.00;;;2.63;;
22614;SDS011;11474;50.790;0.298;2023-06-26T12:19:01;8.60;;;2.58;;
22614;SDS011;11474;50.790;0.298;2023-06-26T12:21:33;11.37;;;2.60;;
22614;SDS011;11474;50.790;0.298;2023-06-26T12:24:00;14.13;;;2.85;;
22614;SDS011;11474;50.790;0.298;2023-06-26T12:26:26;9.57;;;2.35;;
22614;SDS011;11474;50.790;0.298;2023-06-26T12:29:00;9.07;;;2.30;;
22614;SDS011;11474;50.790;0.298;2023-06-26T12:31:27;9.55;;;2.75;;
22614;SDS011;11474;50.790;0.298;2023-06-26T12:33:53;19.10;;;2.65;;
22614;SDS011;11474;50.790;0.298;2023-06-26T12:36:19;11.95;;;2.55;;
22614;SDS011;11474;50.790;0.298;2023-06-26T12:38:45;13.20;;;2.83;;
22614;SDS011;11474;50.790;0.298;2023-06-26T12:41:12;12.90;;;2.80;;
22614;SDS011;11474;50.790;0.298;2023-06-26T12:43:39;13.90;;;3.10;;
22614;SDS011;11474;50.790;0.298;2023-06-26T12:46:06;11.90;;;2.60;;
22614;SDS011;11474;50.790;0.298;2023-06-26T12:48:44;12.90;;;2.47;;
22614;SDS011;11474;50.790;0.298;2023-06-26T12:51:14;11.63;;;2.85;;
22614;SDS011;11474;50.790;0.298;2023-06-26T12:53:41;8.95;;;2.50;;
22614;SDS011;11474;50.790;0.298;2023-06-26T12:56:07;16.30;;;3.05;;
22614;SDS011;11474;50.790;0.298;2023-06-26T12:58:34;11.48;;;2.70;;
22614;SDS011;11474;50.790;0.298;2023-06-26T13:01:05;9.05;;;2.42;;
22614;SDS011;11474;50.790;0.298;2023-06-26T13:03:39;10.30;;;2.63;;
22614;SDS011;11474;50.790;0.298;2023-06-26T13:06:05;11.05;;;2.67;;
22614;SDS011;11474;50.790;0.298;2023-06-26T13:08:32;13.55;;;2.80;;
22614;SDS011;11474;50.790;0.298;2023-06-26T13:10:59;12.90;;;2.90;;
22614;SDS011;11474;50.790;0.298;2023-06-26T13:13:25;15.65;;;3.00;;
22614;SDS011;11474;50.790;0.298;2023-06-26T13:15:51;11.00;;;2.38;;
22614;SDS011;11474;50.790;0.298;2023-06-26T13:18:17;14.48;;;2.95;;
22614;SDS011;11474;50.790;0.298;2023-06-26T13:20:43;11.70;;;2.67;;
22614;SDS011;11474;50.790;0.298;2023-06-26T13:23:09;12.10;;;3.28;;
22614;SDS011;11474;50.790;0.298;2023-06-26T13:25:35;15.98;;;2.88;;
22614;SDS011;11474;50.790;0.298;2023-06-26T13:28:02;16.95;;;2.97;;
22614;SDS011;11474;50.790;0.298;2023-06-26T13:30:28;11.00;;;2.83;;
22614;SDS011;11474;50.790;0.298;2023-06-26T13:32:54;16.52;;;2.90;;
22614;SDS011;11474;50.790;0.298;2023-06-26T13:35:20;10.85;;;2.90;;
22614;SDS011;11474;50.790;0.298;2023-06-26T13:37:47;15.50;;;2.90;;
22614;SDS011;11474;50.790;0.298;2023-06-26T13:40:13;12.40;;;2.97;;
22614;SDS011;11474;50.790;0.298;2023-06-26T13:42:39;12.18;;;2.70;;
22614;SDS011;11474;50.790;0.298;2023-06-26T13:45:05;13.73;;;3.15;;
22614;SDS011;11474;50.790;0.298;2023-06-26T13:47:32;13.23;;;2.85;;
22614;SDS011;11474;50.790;0.298;2023-06-26T13:49:59;12.30;;;2.70;;
22614;SDS011;11474;50.790;0.298;2023-06-26T13:52:25;14.90;;;3.00;;
22614;SDS011;11474;50.790;0.298;2023-06-26T13:54:52;13.07;;;2.85;;
22614;SDS011;11474;50.790;0.298;2023-06-26T13:57:18;9.20;;;2.50;;
22614;SDS011;11474;50.790;0.298;2023-06-26T13:59:47;16.50;;;3.20;;
22614;SDS011;11474;50.790;0.298;2023-06-26T14:02:13;10.40;;;2.40;;
22614;SDS011;11474;50.790;0.298;2023-06-26T14:04:39;14.82;;;2.65;;
22614;SDS011;11474;50.790;0.298;2023-06-26T14:07:06;11.15;;;2.67;;
22614;SDS011;11474;50.790;0.298;2023-06-26T14:09:32;8.15;;;2.42;;
22614;SDS011;11474;50.790;0.298;2023-06-26T14:11:58;12.57;;;2.67;;
22614;SDS011;11474;50.790;0.298;2023-06-26T14:14:24;15.60;;;3.13;;
22614;SDS011;11474;50.790;0.298;2023-06-26T14:16:50;14.57;;;2.93;;
22614;SDS011;11474;50.790;0.298;2023-06-26T14:19:17;14.75;;;2.90;;
22614;SDS011;11474;50.790;0.298;2023-06-26T14:21:43;15.10;;;3.10;;
22614;SDS011;11474;50.790;0.298;2023-06-26T14:24:09;13.97;;;2.70;;
22614;SDS011;11474;50.790;0.298;2023-06-26T14:26:35;14.00;;;2.95;;
22614;SDS011;11474;50.790;0.298;2023-06-26T14:29:02;17.15;;;3.17;;
22614;SDS011;11474;50.790;0.298;2023-06-26T14:31:28;15.07;;;3.10;;
22614;SDS011;11474;50.790;0.298;2023-06-26T14:33:54;19.88;;;3.28;;
22614;SDS011;11474;50.790;0.298;2023-06-26T14:36:20;12.67;;;3.00;;
22614;SDS011;11474;50.790;0.298;2023-06-26T14:38:46;12.02;;;2.92;;
22614;SDS011;11474;50.790;0.298;2023-06-26T14:41:12;13.50;;;2.90;;
22614;SDS011;11474;50.790;0.298;2023-06-26T14:43:38;15.85;;;3.30;;
22614;SDS011;11474;50.790;0.298;2023-06-26T14:46:05;9.15;;;2.70;;
22614;SDS011;11474;50.790;0.298;2023-06-26T14:48:31;17.63;;;2.97;;
22614;SDS011;11474;50.790;0.298;2023-06-26T14:50:57;14.57;;;3.38;;